Antonio B. Won Pat International Airport
PGUM : now visible

Airfield :











YOU CAN JOIN US ON...

 
LOGIN :

Register | Disclaimer

   EN    FR    IT 

 









Legend :    VFR   Marginal VFR   IFR   Intensive IFR   Very Intensive IFR
Visi :
Ceiling :
>= 8 km
>= 3000ft
5 to 8 km
1000 to 3000 ft
1500m to 5 km
500 to 1000 ft
800 to 1500m
200 to 500 ft
< 800m
< 200 ft
Symbols :   Thunderstorms  Fog  Heavy snow  Heavy precipitations  Wind > 20 kt







- Airport Elevation : 298 ft
- IATA code : GUM


PGUM - Antonio B. Won Pat International

CURRENT METAR :
  • 191354Z 03011G20KT 10SM FEW031 BKN041 BKN047 26/24 A3002 RMK AO2 SLP159 T02560239 402940233

EXPIRED METARs :
  • 191254Z 04015KT 10SM FEW023 FEW033 OVC042 26/24 A3002 RMK AO2 SLP159 T02560239
  • 191154Z 05012KT 10SM FEW039 26/24 A3002 RMK AO2 RAB25E34 SLP159 P0000 60000 70012 T02560239 10283 20256 50010

TAF PGUM
Valid from the 19 at 12:00 until the 20 at 18:00 UTC


191132Z 1912/2018 05015KT P6SM VCSH SCT024 BKN040
FM192300 05018G28KT P6SM VCSH SCT024 SCT035
FM200900 05015KT P6SM VCSH FEW024 SCT035
PGZU FIR / Oceania



MET'MAP, your aeronautical weather chart ! - Copyright ORBIFLY December 2007 - Disclaimer

ORBIFLY MET'MAP TEAM :

Programming & Development : Alexandra Zaïnal
Concept & Development : Baudouin d'Aumeries
Co-Development & Prog : Marc-Olivier Méhu
Technical & hardware support : Manuel Goepfert

Contact : metmap@orbifly.com




SOURCES & CREDITS :

   NOAA       Earth
Advisory